Latest Weather Observations for Goulburn Airport

IDN60801

Issued at 5:33 am EDT Friday 6 March 2015 (issued every 30 minutes, with the page automatically refreshed every 10 minutes)

About weather observations | Map of weather stations | Latest weather observations for NSW | Other Formats
Station Details ID: 070330 Name: GOULBURN AIRPORT AWS Lat: -34.81 Lon: 149.73 Height: 640.0 m
Data from the previous 72 hours. | See also: Recent months at Goulburn Airport
Date/Time
EDT
Temp
°C
App
Temp
°C
Dew
Point
Rel
Hum
%
Delta-T
°C
Wind Press
QNH
hPa
Press
MSL
hPa
Rain
since 9 am
mm
Dir
 
Spd
km/h
Gust
km/h
Spd
kts
Gust
kts
06/05:30am 10.3 6.3 -2.0 42 4.9 W 9 17 5 9 1009.7 1007.7 0.0
06/05:00am 10.2 4.8 -1.5 44 4.7 WNW 17 24 9 13 1009.5 1007.4 0.0
06/04:30am 9.3 5.2 0.0 52 3.9 NNW 11 15 6 8 1010.2 1008.1 0.0
06/04:00am 9.7 4.5 0.1 51 4.0 NNW 17 22 9 12 1010.4 1008.3 0.0
06/03:30am 9.5 5.2 0.7 54 3.7 N 13 19 7 10 1010.6 1008.5 0.0
06/03:00am 9.2 4.2 1.1 57 3.5 NNW 17 20 9 11 1010.7 1008.6 0.0
06/02:30am 8.4 3.4 1.3 61 3.0 NW 17 19 9 10 1011.2 1009.2 0.0
06/02:00am 8.3 3.8 2.1 65 2.7 NW 15 19 8 10 1011.9 1009.8 0.0
06/01:30am 7.6 5.2 4.4 80 1.5 NW 6 9 3 5 1012.3 1010.2 0.0
06/01:00am 8.8 6.0 5.2 78 1.7 NNW 9 11 5 6 1012.5 1010.5 0.0
06/12:30am 8.5 5.7 5.1 79 1.6 N 9 13 5 7 1012.7 1010.7 0.0
06/12:00am 9.0 6.6 5.4 78 1.7 NNE 7 11 4 6 1013.0 1011.0 0.0
 
Date/Time
EDT
Temp
°C
App
Temp
°C
Dew
Point
Rel
Hum
%
Delta-T
°C
Wind Press
QNH
hPa
Press
MSL
hPa
Rain
since 9 am
mm
Dir
 
Spd
km/h
Gust
km/h
Spd
kts
Gust
kts
05/11:30pm 10.9 8.0 6.5 74 2.1 NNW 11 17 6 9 1013.5 1011.4 0.0
05/11:00pm 11.9 7.3 6.6 70 2.6 NNE 20 32 11 17 1013.4 1011.3 0.0
05/10:30pm 11.2 8.6 6.3 72 2.4 N 9 13 5 7 1013.8 1011.8 0.0
05/10:00pm 11.2 9.0 6.1 71 2.5 NE 7 13 4 7 1013.9 1011.9 0.0
05/09:30pm 11.7 9.0 5.8 67 2.9 N 9 13 5 7 1013.7 1011.6 0.0
05/09:00pm 11.7 8.8 4.7 62 3.3 NNE 9 13 5 7 1013.3 1011.2 0.0
05/08:30pm 13.8 10.5 4.7 54 4.4 NE 11 15 6 8 1012.9 1010.9 0.0
05/08:00pm 15.1 11.2 5.3 52 4.8 ENE 15 20 8 11 1012.4 1010.4 0.0
05/07:30pm 16.1 12.2 7.1 55 4.6 ENE 17 24 9 13 1011.8 1009.7 0.0
05/07:00pm 17.3 14.0 7.9 54 4.9 E 15 19 8 10 1011.3 1009.3 0.0
05/06:30pm 17.2 13.6 8.4 56 4.7 E 17 20 9 11 1011.1 1009.1 0.0
05/06:00pm 18.1 14.3 9.2 56 4.8 E 19 24 10 13 1010.6 1008.5 0.0
05/05:30pm 19.4 16.0 9.3 52 5.5 SSE 17 24 9 13 1010.2 1008.1 0.0
05/05:00pm 22.4 16.9 2.0 26 9.9 W 20 35 11 19 1009.6 1007.6 0.0
05/04:30pm 22.0 16.7 3.2 29 9.3 WSW 20 33 11 18 1009.9 1007.8 0.0
05/04:00pm 23.0 17.8 3.5 28 9.8 WSW 20 33 11 18 1009.7 1007.7 0.0
05/03:30pm 23.2 17.4 4.2 29 9.6 W 24 37 13 20 1010.2 1008.1 0.0
05/03:00pm 22.6 15.9 3.7 29 9.5 W 28 46 15 25 1010.1 1008.0 0.0
05/02:41pm 22.5 15.8 3.6 29 9.4 W 28 46 15 25 1009.7 1007.7 0.0
05/02:30pm 21.7 15.2 2.9 29 9.2 W 26 39 14 21 1010.0 1007.9 0.0
05/02:00pm 22.0 15.7 3.6 30 9.2 WSW 26 43 14 23 1010.1 1008.0 0.0
05/01:30pm 22.0 15.2 5.0 33 8.7 W 30 43 16 23 1010.1 1008.0 0.0
05/01:00pm 20.9 13.5 4.0 33 8.4 W 32 41 17 22 1010.5 1008.4 0.0
05/12:38pm 20.6 14.2 5.4 37 7.8 W 28 46 15 25 1010.9 1008.8 0.0
05/12:30pm 20.2 13.4 5.1 37 7.6 W 30 43 16 23 1011.0 1009.0 0.0
05/12:00pm 19.8 13.2 6.2 41 7.0 W 30 41 16 22 1011.1 1009.1 0.0
05/11:48am 20.0 12.9 5.6 39 7.3 W 32 50 17 27 1010.9 1008.8 0.0
05/11:30am 19.7 12.5 5.7 40 7.2 W 33 46 18 25 1010.7 1008.6 0.0
05/11:11am 19.3 11.8 6.4 43 6.7 W 35 54 19 29 1010.4 1008.3 0.0
05/11:00am 18.6 10.6 5.8 43 6.5 W 37 52 20 28 1010.4 1008.3 0.0
05/10:30am 18.5 10.8 7.3 48 5.8 W 37 52 20 28 1010.4 1008.3 0.0
05/10:14am 18.7 12.1 8.4 51 5.5 W 33 52 18 28 1010.6 1008.5 0.0
05/10:00am 17.6 10.5 7.9 53 5.1 W 35 48 19 26 1010.4 1008.3 0.0
05/09:30am 16.6 9.8 7.5 55 4.7 W 33 46 18 25 1010.6 1008.5 0.0
05/09:18am 16.3 10.5 7.8 57 4.4 W 28 50 15 27 1010.4 1008.3 0.0
05/09:00am 15.7 8.9 7.5 58 4.2 W 33 50 18 27 1010.1 1008.0 0.0
05/08:35am 14.7 7.0 7.0 60 3.9 WNW 37 56 20 30 1008.8 1006.7 0.0
05/08:30am 14.6 6.0 6.7 59 4.0 WNW 41 56 22 30 1008.5 1006.4 0.0
05/08:19am 15.3 7.9 6.8 57 4.3 WNW 35 56 19 30 1008.4 1006.3 0.0
05/08:00am 15.1 8.2 6.4 56 4.4 WNW 32 46 17 25 1008.1 1006.0 0.0
05/07:56am 15.0 8.8 6.3 56 4.4 WNW 28 46 15 25 1008.1 1006.0 0.0
05/07:30am 14.1 7.7 5.2 55 4.3 WNW 28 43 15 23 1008.0 1005.9 0.0
05/07:00am 14.5 9.4 4.2 50 4.9 WNW 20 33 11 18 1008.1 1006.0 0.0
05/06:30am 14.4 9.3 3.2 47 5.2 WNW 19 32 10 17 1008.0 1005.9 0.0
05/06:00am 14.3 9.3 1.6 42 5.7 WNW 17 28 9 15 1008.1 1006.0 0.0
05/05:30am 15.1 9.1 0.9 38 6.4 W 22 30 12 16 1007.9 1005.8 0.0
05/05:00am 15.6 8.7 0.2 35 6.8 WNW 26 35 14 19 1007.8 1005.7 0.0
05/04:30am 15.6 9.8 0.2 35 6.8 WNW 20 32 11 17 1008.0 1005.9 0.0
05/04:00am 15.6 10.0 1.0 37 6.6 W 20 32 11 17 1008.3 1006.1 0.0
05/03:30am 13.2 9.6 0.6 42 5.5 WNW 9 13 5 7 1008.5 1006.4 0.0
05/03:00am 14.4 11.2 -0.8 35 6.5 WNW 6 9 3 5 1008.7 1006.6 0.0
05/02:30am 14.4 9.6 0.3 38 6.2 WNW 15 19 8 10 1009.2 1007.1 0.0
05/02:00am 11.3 6.7 -0.8 43 5.0 WNW 13 15 7 8 1010.0 1007.9 0.0
05/01:30am 13.4 9.5 -1.3 36 6.2 WNW 9 11 5 6 1010.1 1008.0 0.0
05/01:00am 14.5 10.6 -1.6 33 6.8 NW 9 13 5 7 1010.3 1008.2 0.0
05/12:30am 15.8 11.9 -1.3 31 7.3 NNW 9 11 5 6 1010.5 1008.4 0.0
05/12:00am 16.3 11.7 -1.3 30 7.6 N 13 17 7 9 1010.8 1008.7 0.0
 
Date/Time
EDT
Temp
°C
App
Temp
°C
Dew
Point
Rel
Hum
%
Delta-T
°C
Wind Press
QNH
hPa
Press
MSL
hPa
Rain
since 9 am
mm
Dir
 
Spd
km/h
Gust
km/h
Spd
kts
Gust
kts
04/11:30pm 16.4 12.2 -0.8 31 7.5 NNW 11 13 6 7 1011.2 1009.2 0.0
04/11:00pm 17.3 12.5 0.0 31 7.7 NW 15 17 8 9 1011.4 1009.4 0.0
04/10:30pm 15.1 10.5 1.3 39 6.2 WNW 15 17 8 9 1011.8 1009.7 0.0
04/10:00pm 16.0 11.4 1.7 38 6.6 WNW 15 17 8 9 1012.1 1010.0 0.0
04/09:30pm 17.8 13.0 2.5 36 7.2 WNW 17 19 9 10 1011.9 1009.8 0.0
04/09:00pm 18.5 13.8 3.2 36 7.4 WNW 17 19 9 10 1011.8 1009.7 0.0
04/08:30pm 19.5 14.7 2.8 33 8.0 WNW 17 19 9 10 1011.6 1009.5 0.0
04/08:00pm 19.0 14.5 2.4 33 7.9 W 15 19 8 10 1011.2 1009.2 0.0
04/07:30pm 21.9 17.6 1.0 25 9.9 W 13 17 7 9 1011.1 1009.1 0.0
04/07:00pm 25.3 19.7 0.0 19 12.1 W 19 26 10 14 1011.1 1009.1 0.0
04/06:30pm 26.6 20.6 1.1 19 12.5 W 22 30 12 16 1010.9 1008.8 0.0
04/06:00pm 27.4 20.4 -0.6 16 13.4 W 26 33 14 18 1011.0 1009.0 0.0
04/05:30pm 26.6 19.7 0.4 18 12.7 W 26 35 14 19 1011.0 1009.0 0.0
04/05:00pm 28.9 23.2 3.0 19 13.3 W 22 39 12 21 1010.9 1008.8 0.0
04/04:30pm 29.3 23.7 0.9 16 14.1 WNW 20 33 11 18 1010.9 1008.8 0.0
04/04:00pm 29.0 22.6 3.1 19 13.4 W 26 39 14 21 1011.3 1009.3 0.0
04/03:30pm 28.5 23.3 3.4 20 13.0 W 20 28 11 15 1011.8 1009.7 0.0
04/03:00pm 29.2 23.4 4.6 21 13.0 W 24 35 13 19 1012.2 1010.1 0.0
04/02:30pm 28.8 24.5 6.8 25 12.1 W 19 26 10 14 1012.6 1010.6 0.0
04/02:00pm 27.7 22.9 7.5 28 11.2 W 22 32 12 17 1013.0 1011.0 0.0
04/01:30pm 27.1 22.4 6.0 26 11.3 WNW 20 35 11 19 1013.3 1011.2 0.0
04/01:00pm 27.4 23.2 5.6 25 11.6 W 17 32 9 17 1013.5 1011.4 0.0
04/12:30pm 27.1 25.1 10.3 35 9.7 WSW 11 20 6 11 1014.1 1012.1 0.0
04/12:00pm 26.4 24.9 10.5 37 9.2 WSW 9 17 5 9 1014.6 1012.6 0.0
04/11:30am 24.8 24.0 11.7 44 7.6 N 7 17 4 9 1015.1 1013.0 0.0
04/11:00am 24.3 24.8 15.0 56 5.7 NNW 6 11 3 6 1015.4 1013.4 0.0
04/10:30am 22.2 22.6 15.3 65 4.2 NNE 7 11 4 6 1015.6 1013.6 0.0
04/10:00am 20.5 20.3 14.8 70 3.4 NNW 9 15 5 8 1015.7 1013.7 0.0
04/09:30am 20.0 20.1 15.4 75 2.8 N 9 13 5 7 1016.0 1014.0 0.0
04/09:00am 18.3 17.9 15.2 82 1.9 NNE 11 15 6 8 1016.2 1014.2 0.0
04/08:30am 17.4 16.7 14.3 82 1.8 NNE 11 15 6 8 1015.9 1013.9 0.0
04/08:00am 17.0 16.4 14.6 86 1.4 NE 11 13 6 7 1015.6 1013.6 0.0
04/07:30am 16.3 17.4 14.5 89 1.1 NE 2 7 1 4 1015.4 1013.4 0.0
04/07:00am 15.8 15.7 14.0 89 1.0 ESE 7 9 4 5 1015.0 1012.9 0.0
04/06:30am 15.7 15.5 13.7 88 1.2 SE 7 9 4 5 1014.9 1012.8 0.0
04/06:00am 15.8 15.7 14.0 89 1.0 S 7 9 4 5 1014.9 1012.8 0.0
04/05:30am 15.7 15.6 13.9 89 1.0 SE 7 9 4 5 1014.7 1012.7 0.0
04/05:00am 15.9 16.1 14.1 89 1.1 ESE 6 9 3 5 1014.9 1012.8 0.0
04/04:30am 15.9 15.9 14.1 89 1.1 E 7 7 4 4 1015.0 1012.9 0.0
04/04:00am 15.9 15.8 13.9 88 1.2 E 7 11 4 6 1015.3 1013.3 0.0
04/03:30am 15.9 15.1 13.9 88 1.2 ESE 11 15 6 8 1015.6 1013.6 0.0
04/03:00am 16.0 15.2 14.0 88 1.2 SE 11 13 6 7 1015.7 1013.7 0.0
04/02:30am 16.1 15.3 13.9 87 1.3 SE 11 15 6 8 1016.0 1014.0 0.0
04/02:00am 16.2 15.0 13.9 86 1.3 ESE 13 17 7 9 1016.3 1014.3 0.0
04/01:30am 16.2 14.9 13.7 85 1.5 ESE 13 15 7 8 1016.4 1014.4 0.0
04/01:00am 16.4 15.9 13.7 84 1.6 E 9 11 5 6 1016.7 1014.7 0.0
04/12:30am 16.5 15.6 13.8 84 1.6 E 11 15 6 8 1016.9 1014.9 0.0
04/12:00am 16.6 16.1 13.9 84 1.6 E 9 15 5 8 1016.9 1014.9 0.0
 
Date/Time
EDT
Temp
°C
App
Temp
°C
Dew
Point
Rel
Hum
%
Delta-T
°C
Wind Press
QNH
hPa
Press
MSL
hPa
Rain
since 9 am
mm
Dir
 
Spd
km/h
Gust
km/h
Spd
kts
Gust
kts
03/11:30pm 16.6 15.4 14.1 85 1.5 E 13 19 7 10 1017.1 1015.1 0.0
03/11:00pm 16.9 15.9 14.5 86 1.4 E 13 19 7 10 1017.3 1015.3 0.0
03/10:30pm 17.0 16.0 14.6 86 1.4 E 13 20 7 11 1017.4 1015.4 0.0
03/10:00pm 17.1 16.7 15.1 88 1.2 E 11 17 6 9 1017.2 1015.2 0.0
03/09:30pm 17.2 16.0 15.0 87 1.3 ESE 15 22 8 12 1017.1 1015.1 0.0
03/09:00pm 17.5 16.8 15.3 87 1.3 ESE 13 20 7 11 1016.9 1014.9 0.0
03/08:30pm 17.6 16.5 15.4 87 1.3 ESE 15 19 8 10 1016.4 1014.4 0.0
03/08:06pm 17.6 16.8 15.0 85 1.6 ESE 13 17 7 9 1016.1 1014.1 0.0
03/08:00pm 17.6 16.8 15.0 85 1.6 ESE 13 19 7 10 1016.0 1014.0 0.0
03/07:30pm 18.2 17.6 15.6 85 1.6 ESE 13 20 7 11 1015.7 1013.7 0.0
03/07:00pm 18.7 16.9 15.9 84 1.7 E 20 26 11 14 1015.5 1013.5 0.0
03/06:30pm 19.7 18.5 16.2 80 2.2 ESE 17 22 9 12 1015.2 1013.2 0.0
03/06:00pm 21.0 19.8 16.0 73 3.1 E 17 24 9 13 1015.1 1013.0 0.0
03/05:30pm 23.0 20.9 16.3 66 4.2 ENE 22 30 12 16 1014.4 1012.4 0.0
03/05:00pm 25.5 23.8 15.8 55 6.1 ENE 19 35 10 19 1014.0 1012.0 0.0
03/04:30pm 27.9 26.8 13.1 40 9.0 W 11 17 6 9 1013.9 1011.9 0.0
03/04:00pm 27.4 26.5 13.7 43 8.4 NW 11 15 6 8 1014.2 1012.2 0.0
03/03:30pm 29.3 28.5 15.1 42 8.9 WSW 13 28 7 15 1014.4 1012.4 0.0
03/03:00pm 28.1 27.5 14.7 44 8.3 WNW 11 19 6 10 1014.7 1012.7 0.0
03/02:30pm 26.8 26.9 14.5 46 7.6 W 7 17 4 9 1015.3 1013.3 0.0
03/02:00pm 26.7 25.0 14.8 48 7.4 WSW 17 24 9 13 1015.7 1013.7 0.0
03/01:30pm 26.4 24.5 15.1 49 7.0 W 19 28 10 15 1015.9 1013.9 0.0
03/01:00pm 26.0 23.4 14.8 50 6.9 WSW 22 30 12 16 1016.1 1014.1 0.0
03/12:30pm 25.4 22.8 14.8 52 6.5 W 22 30 12 16 1016.4 1014.4 0.0
03/12:00pm 25.9 23.6 15.6 53 6.4 W 22 33 12 18 1016.9 1014.9 0.0
03/11:30am 26.0 24.3 14.8 50 6.9 WSW 17 26 9 14 1017.1 1015.1 0.0
03/11:00am 23.9 22.9 13.4 51 6.3 WNW 11 19 6 10 1017.5 1015.5 0.0
03/10:30am 22.5 20.3 13.3 56 5.5 WNW 17 26 9 14 1017.8 1015.8 0.0
03/10:00am 19.9 19.0 12.7 63 4.2 WNW 9 13 5 7 1017.4 1015.4 0.0
03/09:30am 18.6 18.1 13.7 73 2.9 NW 9 11 5 6 1017.5 1015.5 0.0
03/09:00am 15.8 15.3 12.5 81 1.9 NNW 7 9 4 5 1017.4 1015.4 0.0
03/08:30am 13.7 14.4 12.1 90 0.9 CALM 0 0 0 0 1017.4 1015.4 0.0
03/08:00am 12.2 12.6 11.3 94 0.5 CALM 0 0 0 0 1016.9 1014.9 0.0
03/07:30am 10.0 9.9 9.4 96 0.3 CALM 0 0 0 0 1016.8 1014.8 0.0
03/07:00am 9.3 9.0 8.5 95 0.4 CALM 0 0 0 0 1016.6 1014.6 0.0
03/06:30am 9.0 8.6 8.1 94 0.4 CALM 0 2 0 1 1016.2 1014.2 0.0
03/06:00am 9.6 8.2 8.8 95 0.4 SW 6 7 3 4 1016.2 1014.2 0.0

Other Formats:

Comma delimited format used in spreadsheet applications
http://www.bom.gov.au/fwo/IDN60801/IDN60801.95716.axf

JavaScript Object Notation format (JSON) in row-major order
http://www.bom.gov.au/fwo/IDN60801/IDN60801.95716.json